createdAt,value
2022-11-06T00:09:58.683Z,73.32
2022-11-06T00:20:02.061Z,73.16
2022-11-06T00:30:07.204Z,73.53
2022-11-06T00:40:12.394Z,73.70
2022-11-06T00:50:15.831Z,73.85
2022-11-06T01:00:20.751Z,73.79
2022-11-06T01:10:24.059Z,73.87
2022-11-06T01:20:27.279Z,73.90
2022-11-06T01:30:30.919Z,73.80
2022-11-06T01:40:44.048Z,73.79
2022-11-06T01:50:51.694Z,73.83
2022-11-06T02:00:55.021Z,73.59
2022-11-06T02:10:58.730Z,73.38
2022-11-06T02:21:14.178Z,73.93
2022-11-06T02:31:23.525Z,73.98
2022-11-06T02:41:33.841Z,73.86
2022-11-06T02:51:44.011Z,73.91
2022-11-06T03:01:52.423Z,73.77
2022-11-06T03:12:20.753Z,73.39
2022-11-06T03:22:47.932Z,73.56
2022-11-06T03:33:02.715Z,73.43
2022-11-06T03:43:11.136Z,73.44
2022-11-06T03:53:22.560Z,73.29
2022-11-06T04:03:31.652Z,73.20
2022-11-06T04:13:56.957Z,73.10
2022-11-06T04:24:28.319Z,73.29
2022-11-06T04:34:40.580Z,73.12
2022-11-06T04:44:51.491Z,72.81
2022-11-06T04:54:57.772Z,72.97
2022-11-06T05:05:01.065Z,73.18
2022-11-06T05:15:05.261Z,73.01
2022-11-06T05:25:08.891Z,72.80
2022-11-06T05:35:12.415Z,72.20
2022-11-06T05:45:16.060Z,72.35
2022-11-06T05:55:19.716Z,71.79
2022-11-06T06:05:22.961Z,71.76
2022-11-06T06:15:26.223Z,71.62
2022-11-06T06:25:30.085Z,70.95
2022-11-06T06:35:34.329Z,70.66
2022-11-06T06:45:38.013Z,70.54
2022-11-06T06:55:42.519Z,70.27
2022-11-06T07:05:47.041Z,69.83
2022-11-06T07:15:50.276Z,69.84
2022-11-06T07:25:54.717Z,70.03
2022-11-06T07:36:04.500Z,69.19
2022-11-06T07:46:09.768Z,68.96
2022-11-06T07:56:13.049Z,69.05
2022-11-06T08:06:16.568Z,69.11
2022-11-06T08:16:19.844Z,69.10
2022-11-06T08:26:23.173Z,69.55
2022-11-06T08:36:27.059Z,69.73
2022-11-06T08:46:30.421Z,70.20
2022-11-06T08:56:33.670Z,70.44
2022-11-06T09:06:39.811Z,70.65
2022-11-06T09:16:43.003Z,71.31
2022-11-06T09:26:46.625Z,71.15
2022-11-06T09:36:49.905Z,71.33
2022-11-06T09:46:57.054Z,71.18
2022-11-06T09:57:06.872Z,70.73
2022-11-06T10:07:24.726Z,70.31
2022-11-06T10:17:43.293Z,69.69
2022-11-06T10:27:55.419Z,68.88
2022-11-06T10:38:24.689Z,67.95
2022-11-06T10:48:41.362Z,67.19
2022-11-06T10:58:45.247Z,66.65
2022-11-06T11:08:50.582Z,65.47
2022-11-06T11:18:54.418Z,64.67
2022-11-06T11:29:01.271Z,63.91
2022-11-06T11:39:04.677Z,63.01
2022-11-06T11:49:27.794Z,62.15
2022-11-06T11:59:55.524Z,61.55
2022-11-06T12:10:01.056Z,61.20
2022-11-06T12:20:11.811Z,60.57
2022-11-06T12:30:18.706Z,60.44
2022-11-06T12:40:25.629Z,60.33
2022-11-06T12:51:12.919Z,60.68
2022-11-06T13:01:33.468Z,60.69
2022-11-06T13:11:59.699Z,60.72
2022-11-06T13:22:30.278Z,60.93
2022-11-06T13:32:36.493Z,61.21
2022-11-06T13:42:58.662Z,61.73
2022-11-06T13:53:38.374Z,61.81
2022-11-06T14:03:59.674Z,62.40
2022-11-06T14:14:21.794Z,63.07
2022-11-06T14:24:41.744Z,63.56
2022-11-06T14:34:45.475Z,63.95
2022-11-06T14:44:55.423Z,64.60
2022-11-06T14:55:05.485Z,65.17
2022-11-06T15:05:18.113Z,65.79
2022-11-06T15:15:21.522Z,66.46
2022-11-06T15:25:30.306Z,67.14
2022-11-06T15:35:36.190Z,67.70
2022-11-06T15:45:39.464Z,68.21
2022-11-06T15:56:03.741Z,68.61
2022-11-06T16:06:07.278Z,69.11
2022-11-06T16:16:34.987Z,69.41
2022-11-06T16:26:45.450Z,69.71
2022-11-06T16:36:59.358Z,70.03
2022-11-06T16:47:05.838Z,70.35
2022-11-06T16:57:11.386Z,70.63
2022-11-06T17:07:21.924Z,71.11
2022-11-06T17:17:26.478Z,71.22
2022-11-06T17:27:29.753Z,71.74
2022-11-06T17:37:33.143Z,71.63
2022-11-06T17:47:36.526Z,71.74
2022-11-06T17:57:40.463Z,72.07
2022-11-06T18:07:43.750Z,72.16
2022-11-06T18:17:47.605Z,72.24
2022-11-06T18:27:50.898Z,72.33
2022-11-06T18:37:54.303Z,72.64
2022-11-06T18:47:59.411Z,72.56
2022-11-06T18:58:03.899Z,72.69
2022-11-06T19:08:07.191Z,72.74
2022-11-06T19:18:11.888Z,73.16
2022-11-06T19:28:17.008Z,73.15
2022-11-06T19:38:21.471Z,73.39
2022-11-06T19:48:24.779Z,73.59
2022-11-06T19:58:28.162Z,73.47
2022-11-06T20:08:32.211Z,73.58
2022-11-06T20:18:36.659Z,73.83
2022-11-06T20:28:39.950Z,73.78
2022-11-06T20:38:45.055Z,73.83
2022-11-06T20:48:49.940Z,73.86
2022-11-06T20:58:57.080Z,73.93
2022-11-06T21:09:00.817Z,74.06
2022-11-06T21:19:05.283Z,74.06
2022-11-06T21:29:11.495Z,73.86
2022-11-06T21:39:20.006Z,73.83
2022-11-06T21:49:23.299Z,73.62
2022-11-06T21:59:28.738Z,73.88
2022-11-06T22:09:31.968Z,73.97
2022-11-06T22:19:35.307Z,73.85
2022-11-06T22:29:38.525Z,73.87
2022-11-06T22:39:41.831Z,73.88
2022-11-06T22:49:45.087Z,73.66
2022-11-06T22:59:48.286Z,73.93
2022-11-06T23:09:51.760Z,73.53
2022-11-06T23:19:56.688Z,73.40
2022-11-06T23:30:02.780Z,73.13
2022-11-06T23:40:08.085Z,73.21
2022-11-06T23:50:11.610Z,73.14
